Time;durP1;ratioP1;P1;durP2;ratioP2;P2;SDS_P1;SDS_P2;PMS_P1;PMS_P2;Temp;Humidity;BMP_temperature;BMP_pressure;BME280_temperature;BME280_humidity;BME280_pressure;Samples;Min_cycle;Max_cycle;Signal;HPM_P1;HPM_P2
2021/03/25 00:02:04;;;;;;;33.15;16.48;;;;;;;;;;5094813;28;20097;-86
2021/03/25 00:04:32;;;;;;;33.17;16.58;;;;;;;;;;5094577;28;20040;-86
2021/03/25 00:06:58;;;;;;;34.03;16.75;;;;;;;;;;5111374;28;20501;-86
2021/03/25 00:09:25;;;;;;;37.35;16.48;;;;;;;;;;5111385;28;20074;-86
2021/03/25 00:11:51;;;;;;;40.22;17.75;;;;;;;;;;5094216;28;20039;-86
2021/03/25 00:14:17;;;;;;;33.55;16.80;;;;;;;;;;5094404;28;20360;-85
2021/03/25 00:16:45;;;;;;;35.20;15.93;;;;;;;;;;5111353;28;20486;-86
2021/03/25 00:19:11;;;;;;;44.10;18.25;;;;;;;;;;5094444;28;20036;-87
2021/03/25 00:21:37;;;;;;;44.03;17.38;;;;;;;;;;5111594;28;20043;-87
2021/03/25 00:24:04;;;;;;;37.33;18.00;;;;;;;;;;5111217;28;20035;-88
2021/03/25 00:26:30;;;;;;;40.30;18.55;;;;;;;;;;5111213;28;20203;-87
2021/03/25 00:28:56;;;;;;;36.47;16.77;;;;;;;;;;5094462;28;20110;-87
2021/03/25 00:31:22;;;;;;;39.45;17.17;;;;;;;;;;5094447;28;20028;-87
2021/03/25 00:33:48;;;;;;;34.42;16.50;;;;;;;;;;5111356;28;20043;-87
2021/03/25 00:36:14;;;;;;;34.40;17.80;;;;;;;;;;5110976;28;20063;-87
2021/03/25 00:38:40;;;;;;;35.67;16.63;;;;;;;;;;5094459;28;20379;-87
2021/03/25 00:41:06;;;;;;;48.55;19.60;;;;;;;;;;5095476;28;20040;-87
2021/03/25 00:43:32;;;;;;;44.55;18.70;;;;;;;;;;5115162;28;20355;-87
2021/03/25 00:45:59;;;;;;;43.60;19.48;;;;;;;;;;5116159;28;20478;-87
2021/03/25 00:48:25;;;;;;;40.25;18.80;;;;;;;;;;5115003;28;20043;-87
2021/03/25 00:50:51;;;;;;;39.42;18.48;;;;;;;;;;5115417;28;20398;-86
2021/03/25 00:53:20;;;;;;;36.45;16.73;;;;;;;;;;5098027;28;20063;-87
2021/03/25 00:55:46;;;;;;;34.47;16.38;;;;;;;;;;5114837;28;20398;-87
2021/03/25 00:58:12;;;;;;;33.10;16.08;;;;;;;;;;5098075;28;20367;-87
2021/03/25 01:00:39;;;;;;;37.20;15.98;;;;;;;;;;5098160;28;20032;-87
2021/03/25 01:03:05;;;;;;;36.33;16.30;;;;;;;;;;5114825;28;20035;-88
2021/03/25 01:05:31;;;;;;;33.70;16.90;;;;;;;;;;5097780;28;20035;-87
2021/03/25 01:07:57;;;;;;;36.47;17.25;;;;;;;;;;5114602;28;20381;-86
2021/03/25 01:10:29;;;;;;;38.28;17.20;;;;;;;;;;5097782;28;20424;-86
2021/03/25 01:12:56;;;;;;;40.42;17.58;;;;;;;;;;5115799;28;20436;-86
2021/03/25 01:15:22;;;;;;;33.90;16.40;;;;;;;;;;5097522;28;20046;-87
2021/03/25 01:17:51;;;;;;;45.03;18.50;;;;;;;;;;5114470;28;20052;-87
2021/03/25 01:20:18;;;;;;;43.60;17.65;;;;;;;;;;5097539;28;20039;-87
2021/03/25 01:22:44;;;;;;;40.40;17.77;;;;;;;;;;5114318;28;20031;-86
2021/03/25 01:25:11;;;;;;;39.40;18.08;;;;;;;;;;5114477;28;20038;-86
2021/03/25 01:27:37;;;;;;;40.28;18.10;;;;;;;;;;5114206;28;20035;-86
2021/03/25 01:30:04;;;;;;;45.40;18.48;;;;;;;;;;5097297;28;20509;-86
2021/03/25 01:32:30;;;;;;;39.85;19.35;;;;;;;;;;5114217;28;20035;-86
2021/03/25 01:34:56;;;;;;;48.50;19.42;;;;;;;;;;5115030;28;20491;-86
2021/03/25 01:37:22;;;;;;;40.35;18.15;;;;;;;;;;5114112;28;20059;-87
2021/03/25 01:39:49;;;;;;;43.90;19.17;;;;;;;;;;5097150;28;20165;-87
2021/03/25 01:42:20;;;;;;;40.38;19.15;;;;;;;;;;5115209;28;20039;-86
2021/03/25 01:44:46;;;;;;;48.70;18.77;;;;;;;;;;5113845;28;20556;-87
2021/03/25 01:47:12;;;;;;;47.22;21.10;;;;;;;;;;5097154;28;20040;-87
2021/03/25 01:49:38;;;;;;;46.42;21.67;;;;;;;;;;5096876;28;20040;-87
2021/03/25 01:52:12;;;;;;;47.80;21.40;;;;;;;;;;5113363;28;20031;-86
2021/03/25 01:54:45;;;;;;;51.35;21.77;;;;;;;;;;5113379;28;20042;-86
2021/03/25 01:57:23;;;;;;;56.10;22.50;;;;;;;;;;5113903;28;20040;-87
2021/03/25 01:59:52;;;;;;;46.72;20.75;;;;;;;;;;5114890;28;20039;-87
2021/03/25 02:02:38;;;;;;;44.63;20.15;;;;;;;;;;5114684;28;20076;-87
2021/03/25 02:05:06;;;;;;;48.63;19.67;;;;;;;;;;5113550;28;20042;-87
2021/03/25 02:07:37;;;;;;;44.95;19.90;;;;;;;;;;5096617;28;20032;-87
2021/03/25 02:10:08;;;;;;;43.42;20.15;;;;;;;;;;5096591;28;20089;-87
2021/03/25 02:12:56;;;;;;;45.00;19.38;;;;;;;;;;5113314;28;20039;-87
2021/03/25 02:15:41;;;;;;;48.58;20.63;;;;;;;;;;5096387;28;20039;-87
2021/03/25 02:18:17;;;;;;;44.80;20.45;;;;;;;;;;5113441;28;20047;-86
2021/03/25 02:20:46;;;;;;;48.35;20.80;;;;;;;;;;5096550;28;20036;-86
2021/03/25 02:23:21;;;;;;;52.22;21.63;;;;;;;;;;5114346;28;20474;-87
2021/03/25 02:25:55;;;;;;;55.55;23.17;;;;;;;;;;5113176;28;20127;-86
2021/03/25 02:28:21;;;;;;;56.40;23.45;;;;;;;;;;5112531;28;20054;-86
2021/03/25 02:31:04;;;;;;;53.15;20.92;;;;;;;;;;5114370;28;20067;-86
2021/03/25 02:33:30;;;;;;;58.20;23.38;;;;;;;;;;5112869;28;20479;-86
2021/03/25 02:35:57;;;;;;;52.42;22.50;;;;;;;;;;5095790;28;20044;-87
2021/03/25 02:38:38;;;;;;;54.63;22.25;;;;;;;;;;5095668;28;20051;-87
2021/03/25 02:41:06;;;;;;;57.22;23.80;;;;;;;;;;5112790;28;20132;-87
2021/03/25 02:43:42;;;;;;;55.38;23.20;;;;;;;;;;5112820;28;20059;-86
2021/03/25 02:46:10;;;;;;;49.83;21.77;;;;;;;;;;5112655;28;20036;-86
2021/03/25 02:48:36;;;;;;;56.28;23.38;;;;;;;;;;5112660;28;20447;-85
2021/03/25 02:51:06;;;;;;;57.13;22.85;;;;;;;;;;5112689;28;20046;-87
2021/03/25 02:53:37;;;;;;;59.65;22.75;;;;;;;;;;5112606;28;20402;-87
2021/03/25 02:56:08;;;;;;;56.38;23.67;;;;;;;;;;5112517;28;20479;-87
2021/03/25 02:58:34;;;;;;;60.17;23.98;;;;;;;;;;5095584;28;20075;-86
2021/03/25 03:01:01;;;;;;;56.95;23.83;;;;;;;;;;5095688;28;20036;-86
2021/03/25 03:03:28;;;;;;;59.65;24.73;;;;;;;;;;5095397;28;20445;-86
2021/03/25 03:05:54;;;;;;;56.92;23.63;;;;;;;;;;5113560;28;20057;-86
2021/03/25 03:08:21;;;;;;;61.42;25.30;;;;;;;;;;5095369;28;20057;-86
2021/03/25 03:10:52;;;;;;;58.33;24.38;;;;;;;;;;5112375;28;20046;-87
2021/03/25 03:13:18;;;;;;;63.38;24.80;;;;;;;;;;5095840;28;20423;-86
2021/03/25 03:15:48;;;;;;;58.60;24.92;;;;;;;;;;5095122;28;20040;-86
2021/03/25 03:18:18;;;;;;;56.22;23.90;;;;;;;;;;5095444;28;20056;-86
2021/03/25 03:20:47;;;;;;;59.53;24.67;;;;;;;;;;5095242;28;20088;-86
2021/03/25 03:23:13;;;;;;;55.40;24.08;;;;;;;;;;5113188;28;20036;-86
2021/03/25 03:25:39;;;;;;;50.88;22.67;;;;;;;;;;5094953;28;20046;-86
2021/03/25 03:28:22;;;;;;;50.17;20.83;;;;;;;;;;5111895;28;20044;-86
2021/03/25 03:30:49;;;;;;;60.83;24.15;;;;;;;;;;5095373;28;20051;-86
2021/03/25 03:33:16;;;;;;;60.00;24.08;;;;;;;;;;5111914;28;20039;-85
2021/03/25 03:35:43;;;;;;;58.80;23.05;;;;;;;;;;5111630;28;20078;-85
2021/03/25 03:38:14;;;;;;;53.05;21.90;;;;;;;;;;5111785;28;20100;-86
2021/03/25 03:40:41;;;;;;;50.78;23.52;;;;;;;;;;5094909;28;20032;-86
2021/03/25 03:43:09;;;;;;;55.13;24.20;;;;;;;;;;5094897;28;20040;-86
2021/03/25 03:45:39;;;;;;;56.50;24.58;;;;;;;;;;5094797;28;20043;-86
2021/03/25 03:48:07;;;;;;;54.53;23.17;;;;;;;;;;5077708;28;20097;-86
2021/03/25 03:50:34;;;;;;;58.45;24.83;;;;;;;;;;5111560;28;20376;-86
2021/03/25 03:53:00;;;;;;;62.42;25.10;;;;;;;;;;5111576;28;20481;-86
2021/03/25 03:55:26;;;;;;;55.78;24.73;;;;;;;;;;5111578;28;20114;-86
2021/03/25 03:58:03;;;;;;;62.78;24.35;;;;;;;;;;5111609;28;20040;-87
2021/03/25 04:00:36;;;;;;;57.47;23.02;;;;;;;;;;5111568;28;20074;-87
2021/03/25 04:03:02;;;;;;;;;;;;;;;;;;5111774;28;20399;-87
2021/03/25 04:05:29;;;;;;;64.07;25.40;;;;;;;;;;5111371;28;19916;-87
2021/03/25 04:07:57;;;;;;;59.22;24.42;;;;;;;;;;5111415;28;20040;-87
2021/03/25 04:10:29;;;;;;;60.60;23.88;;;;;;;;;;5111528;28;20040;-87
2021/03/25 04:12:55;;;;;;;54.30;23.42;;;;;;;;;;5111413;28;20036;-87
2021/03/25 04:15:32;;;;;;;53.03;23.80;;;;;;;;;;5094200;28;20568;-87
2021/03/25 04:18:01;;;;;;;61.90;24.13;;;;;;;;;;5115592;28;20043;-87
2021/03/25 04:20:29;;;;;;;62.17;25.95;;;;;;;;;;5098855;28;20509;-84
2021/03/25 04:22:56;;;;;;;58.30;23.73;;;;;;;;;;5098658;28;20035;-87
2021/03/25 04:25:48;;;;;;;52.30;21.63;;;;;;;;;;5115592;28;20035;-87
2021/03/25 04:28:20;;;;;;;49.88;21.35;;;;;;;;;;5113916;28;20268;-87
2021/03/25 04:30:48;;;;;;;54.78;21.90;;;;;;;;;;5116602;28;20418;-87
2021/03/25 04:33:14;;;;;;;59.53;22.92;;;;;;;;;;5115429;28;20089;-87
2021/03/25 04:35:41;;;;;;;54.88;22.23;;;;;;;;;;5098041;28;20130;-87
2021/03/25 04:38:08;;;;;;;48.60;20.30;;;;;;;;;;5115334;28;20040;-87
2021/03/25 04:40:35;;;;;;;54.05;22.15;;;;;;;;;;5116307;28;20043;-87
2021/03/25 04:43:01;;;;;;;48.35;21.25;;;;;;;;;;5115208;28;20036;-87
2021/03/25 04:45:28;;;;;;;53.40;20.65;;;;;;;;;;5098274;28;20369;-87
2021/03/25 04:47:55;;;;;;;51.60;20.70;;;;;;;;;;5115199;28;20036;-87
2021/03/25 04:50:24;;;;;;;54.90;23.27;;;;;;;;;;5115245;28;20497;-87
2021/03/25 04:53:00;;;;;;;53.35;23.73;;;;;;;;;;5116117;28;20478;-87
2021/03/25 04:55:26;;;;;;;53.28;22.35;;;;;;;;;;5115093;28;20032;-87
2021/03/25 04:57:52;;;;;;;56.50;24.02;;;;;;;;;;5098021;28;20047;-87
2021/03/25 05:00:22;;;;;;;51.42;22.23;;;;;;;;;;5098226;28;20460;-86
2021/03/25 05:02:48;;;;;;;51.13;20.95;;;;;;;;;;5114801;28;20039;-86
2021/03/25 05:05:22;;;;;;;51.13;21.98;;;;;;;;;;5115846;28;20067;-87
2021/03/25 05:07:49;;;;;;;49.05;21.88;;;;;;;;;;5114862;28;20050;-87
2021/03/25 05:10:16;;;;;;;54.58;22.02;;;;;;;;;;5114636;28;20039;-86
2021/03/25 05:12:42;;;;;;;55.45;23.50;;;;;;;;;;5114608;28;20437;-86
2021/03/25 05:15:13;;;;;;;51.35;21.75;;;;;;;;;;5114502;28;20046;-86
2021/03/25 05:18:09;;;;;;;47.13;18.98;;;;;;;;;;5114481;28;20082;-86
2021/03/25 05:20:57;;;;;;;51.60;20.50;;;;;;;;;;5115625;28;20046;-86
2021/03/25 05:23:27;;;;;;;54.13;21.67;;;;;;;;;;5115517;28;20403;-86
2021/03/25 05:26:00;;;;;;;54.75;23.80;;;;;;;;;;5114384;28;20119;-85
2021/03/25 05:28:27;;;;;;;56.30;22.70;;;;;;;;;;5115886;28;20141;-86
2021/03/25 05:30:53;;;;;;;59.72;23.00;;;;;;;;;;5114239;28;20510;-86
2021/03/25 05:33:20;;;;;;;54.88;23.65;;;;;;;;;;5114262;28;20062;-86
2021/03/25 05:35:47;;;;;;;56.40;22.27;;;;;;;;;;5113895;28;20044;-86
2021/03/25 05:38:13;;;;;;;51.60;23.15;;;;;;;;;;5114127;28;20047;-86
2021/03/25 05:40:40;;;;;;;64.75;25.20;;;;;;;;;;5097240;28;20054;-87
2021/03/25 05:43:25;;;;;;;74.65;27.50;;;;;;;;;;5097083;28;20061;-88
2021/03/25 05:46:10;;;;;;;73.45;28.58;;;;;;;;;;5113955;28;20437;-87
2021/03/25 05:48:40;;;;;;;69.15;25.83;;;;;;;;;;5114853;28;20039;-85
2021/03/25 05:51:25;;;;;;;78.03;28.05;;;;;;;;;;5096890;28;20058;-85
2021/03/25 05:54:02;;;;;;;73.63;28.33;;;;;;;;;;5113669;28;20502;-85
2021/03/25 05:56:39;;;;;;;80.97;29.35;;;;;;;;;;5113981;28;20039;-85
2021/03/25 05:59:09;;;;;;;74.60;28.20;;;;;;;;;;5096855;28;20071;-86
2021/03/25 06:01:38;;;;;;;81.65;30.65;;;;;;;;;;5096824;28;20511;-86
2021/03/25 06:04:13;;;;;;;71.88;27.90;;;;;;;;;;5114649;28;20112;-86
2021/03/25 06:06:52;;;;;;;71.85;26.85;;;;;;;;;;5113457;28;20063;-87
2021/03/25 06:09:35;;;;;;;73.20;28.63;;;;;;;;;;5096684;28;20050;-85
2021/03/25 06:12:03;;;;;;;80.18;29.15;;;;;;;;;;5096422;28;20042;-85
2021/03/25 06:14:43;;;;;;;70.75;25.48;;;;;;;;;;5113380;28;20111;-85
2021/03/25 06:17:19;;;;;;;74.28;28.27;;;;;;;;;;5096303;28;20047;-85
2021/03/25 06:19:59;;;;;;;68.00;27.13;;;;;;;;;;5114461;28;20157;-86
2021/03/25 06:22:39;;;;;;;77.25;29.08;;;;;;;;;;5113324;28;20211;-85
2021/03/25 06:25:21;;;;;;;73.82;28.15;;;;;;;;;;5096106;28;20035;-85
2021/03/25 06:28:10;;;;;;;71.75;28.35;;;;;;;;;;5113084;28;20047;-86
2021/03/25 06:30:42;;;;;;;72.40;27.80;;;;;;;;;;5106090;28;20044;-86
2021/03/25 06:33:11;;;;;;;70.97;27.30;;;;;;;;;;5114103;28;20486;-86
2021/03/25 06:35:38;;;;;;;66.43;27.95;;;;;;;;;;5114000;28;20052;-86
2021/03/25 06:38:06;;;;;;;72.22;28.85;;;;;;;;;;5112878;28;20039;-87
2021/03/25 06:40:37;;;;;;;67.95;27.05;;;;;;;;;;5095758;28;20035;-86
2021/03/25 06:43:06;;;;;;;61.95;25.67;;;;;;;;;;5113948;28;20119;-86
2021/03/25 06:45:40;;;;;;;63.53;27.10;;;;;;;;;;5112682;28;20040;-86
2021/03/25 06:48:13;;;;;;;64.50;26.92;;;;;;;;;;5112679;28;20122;-86
2021/03/25 06:50:39;;;;;;;;;;;;;;;;;;5096341;28;20046;-86
2021/03/25 06:53:23;;;;;;;56.05;23.90;;;;;;;;;;5113730;28;19915;-85
2021/03/25 06:56:09;;;;;;;54.95;25.08;;;;;;;;;;5112351;28;20071;-84
2021/03/25 06:58:42;;;;;;;58.85;26.83;;;;;;;;;;5113617;28;20479;-85
2021/03/25 07:01:08;;;;;;;;;;;;;;;;;;5096426;28;20044;-85
2021/03/25 07:03:35;;;;;;;54.03;25.00;;;;;;;;;;5113582;28;19923;-85
2021/03/25 07:06:01;;;;;;;56.80;26.30;;;;;;;;;;5112519;28;20097;-85
2021/03/25 07:08:28;;;;;;;59.88;28.02;;;;;;;;;;5113305;28;20088;-88
2021/03/25 07:10:58;;;;;;;62.40;28.90;;;;;;;;;;5095404;28;20037;-85
2021/03/25 07:13:28;;;;;;;62.97;29.52;;;;;;;;;;5095436;28;20062;-86
2021/03/25 07:15:54;;;;;;;57.95;28.23;;;;;;;;;;5112209;28;20457;-86
2021/03/25 07:18:52;;;;;;;58.55;28.38;;;;;;;;;;5112535;28;20071;-86
2021/03/25 07:21:19;;;;;;;54.65;27.02;;;;;;;;;;5068820;28;20047;-87
2021/03/25 07:23:47;;;;;;;57.88;29.40;;;;;;;;;;5112748;28;20131;-87
2021/03/25 07:26:20;;;;;;;57.47;30.55;;;;;;;;;;5112604;28;20115;-88
2021/03/25 07:28:59;;;;;;;60.47;30.50;;;;;;;;;;5112165;28;20063;-87
2021/03/25 07:31:49;;;;;;;61.25;30.80;;;;;;;;;;5095220;28;20043;-88
2021/03/25 07:34:25;;;;;;;55.45;30.65;;;;;;;;;;5101455;28;20054;-87
2021/03/25 07:36:51;;;;;;;56.38;30.60;;;;;;;;;;5095174;28;20538;-87
2021/03/25 07:39:22;;;;;;;61.20;31.52;;;;;;;;;;5094916;28;20045;-86
2021/03/25 07:41:48;;;;;;;59.33;32.00;;;;;;;;;;5111756;28;20035;-84
2021/03/25 07:44:28;;;;;;;61.92;31.70;;;;;;;;;;5094720;28;20050;-86
2021/03/25 07:46:55;;;;;;;57.60;31.05;;;;;;;;;;5094708;28;20507;-85
2021/03/25 07:49:21;;;;;;;62.10;31.35;;;;;;;;;;5110970;28;20483;-86
2021/03/25 07:51:51;;;;;;;60.47;30.15;;;;;;;;;;5101527;28;20039;-86
2021/03/25 07:54:19;;;;;;;57.95;30.08;;;;;;;;;;5091088;28;20040;-87
2021/03/25 07:57:05;;;;;;;61.17;30.10;;;;;;;;;;5090872;28;20036;-87
2021/03/25 07:59:31;;;;;;;55.47;29.83;;;;;;;;;;5090705;28;20067;-83
2021/03/25 08:01:57;;;;;;;62.22;31.27;;;;;;;;;;5092132;28;20275;-86
2021/03/25 08:04:24;;;;;;;55.58;30.33;;;;;;;;;;5073962;28;20036;-87
2021/03/25 08:06:50;;;;;;;63.88;31.75;;;;;;;;;;5081005;28;20478;-87
2021/03/25 08:09:17;;;;;;;58.05;31.58;;;;;;;;;;5090660;28;20128;-85
2021/03/25 08:11:51;;;;;;;56.80;31.15;;;;;;;;;;5057681;28;20523;-87
2021/03/25 08:14:21;;;;;;;56.58;31.23;;;;;;;;;;5090477;28;20036;-87
2021/03/25 08:16:48;;;;;;;52.53;29.90;;;;;;;;;;5090679;28;20054;-87
2021/03/25 08:19:20;;;;;;;56.70;30.45;;;;;;;;;;5090546;28;20241;-85
2021/03/25 08:21:49;;;;;;;52.53;30.20;;;;;;;;;;5090341;28;20040;-87
2021/03/25 08:24:17;;;;;;;52.10;28.50;;;;;;;;;;5091902;28;20040;-86
2021/03/25 08:26:58;;;;;;;52.35;27.27;;;;;;;;;;5091536;28;20036;-86
2021/03/25 08:29:30;;;;;;;46.75;26.27;;;;;;;;;;5107492;28;20051;-87
2021/03/25 08:32:15;;;;;;;52.17;29.08;;;;;;;;;;5073210;28;20048;-87
2021/03/25 08:34:56;;;;;;;51.10;28.25;;;;;;;;;;5090530;28;20067;-88
2021/03/25 08:37:22;;;;;;;46.33;25.88;;;;;;;;;;5092976;28;20086;-88
2021/03/25 08:40:00;;;;;;;48.03;26.40;;;;;;;;;;5092635;28;20532;-87
2021/03/25 08:42:33;;;;;;;51.70;27.55;;;;;;;;;;5058892;28;20059;-87
2021/03/25 08:45:18;;;;;;;50.13;27.20;;;;;;;;;;5073911;28;20150;-87
2021/03/25 08:47:44;;;;;;;46.70;26.02;;;;;;;;;;5090323;28;20048;-87
2021/03/25 08:50:29;;;;;;;46.13;24.13;;;;;;;;;;5090153;28;20467;-85
2021/03/25 08:52:55;;;;;;;45.60;25.00;;;;;;;;;;5090239;28;20043;-88
2021/03/25 08:55:26;;;;;;;46.45;23.70;;;;;;;;;;5090300;28;20332;-86
2021/03/25 08:57:53;;;;;;;45.95;24.55;;;;;;;;;;5090324;28;20040;-88
2021/03/25 09:00:22;;;;;;;41.35;22.90;;;;;;;;;;5073800;28;20047;-86
2021/03/25 09:02:50;;;;;;;49.38;24.05;;;;;;;;;;5092653;28;20066;-85
2021/03/25 09:05:25;;;;;;;46.97;25.50;;;;;;;;;;5077155;28;20040;-87
2021/03/25 09:07:52;;;;;;;56.78;27.10;;;;;;;;;;5093894;28;20412;-86
2021/03/25 09:10:37;;;;;;;49.53;24.08;;;;;;;;;;5094100;28;20417;-87
2021/03/25 09:13:03;;;;;;;51.47;24.85;;;;;;;;;;5095240;28;20425;-87
2021/03/25 09:15:29;;;;;;;50.70;25.30;;;;;;;;;;5093962;28;20043;-88
2021/03/25 09:17:56;;;;;;;50.92;24.45;;;;;;;;;;5093847;28;20044;-84
2021/03/25 09:20:27;;;;;;;45.22;23.23;;;;;;;;;;5077144;28;20040;-86
2021/03/25 09:22:56;;;;;;;46.05;23.02;;;;;;;;;;5076895;28;20119;-87
2021/03/25 09:25:24;;;;;;;46.75;23.00;;;;;;;;;;5092901;28;20508;-85
2021/03/25 09:27:53;;;;;;;50.53;23.35;;;;;;;;;;5094558;28;20046;-84
2021/03/25 09:30:31;;;;;;;47.25;23.77;;;;;;;;;;5094721;28;20446;-86
2021/03/25 09:33:21;;;;;;;43.92;22.48;;;;;;;;;;5094811;28;20535;-87
2021/03/25 09:35:47;;;;;;;45.05;22.38;;;;;;;;;;5109734;28;20047;-86
2021/03/25 09:38:14;;;;;;;45.83;23.90;;;;;;;;;;5080149;28;20079;-84
2021/03/25 09:40:46;;;;;;;43.97;21.90;;;;;;;;;;5096981;28;20050;-84
2021/03/25 09:43:29;;;;;;;45.15;21.88;;;;;;;;;;5096956;28;20047;-85
2021/03/25 09:45:56;;;;;;;41.97;21.58;;;;;;;;;;5080007;28;20047;-85
2021/03/25 09:48:26;;;;;;;38.47;20.00;;;;;;;;;;5096800;28;20032;-85
2021/03/25 09:51:02;;;;;;;39.95;20.52;;;;;;;;;;5096670;28;20040;-84
2021/03/25 09:53:29;;;;;;;39.85;20.35;;;;;;;;;;5079836;28;20040;-85
2021/03/25 09:56:03;;;;;;;40.25;20.70;;;;;;;;;;5096748;28;20092;-85
2021/03/25 09:58:45;;;;;;;40.63;20.23;;;;;;;;;;5079665;28;20047;-87
2021/03/25 10:01:31;;;;;;;39.22;21.20;;;;;;;;;;5079971;28;20039;-86
2021/03/25 10:03:58;;;;;;;46.90;22.80;;;;;;;;;;5114393;28;20398;-85
2021/03/25 10:06:43;;;;;;;43.97;21.95;;;;;;;;;;5114515;28;20043;-87
2021/03/25 10:09:09;;;;;;;43.60;22.38;;;;;;;;;;5079814;28;20126;-87
2021/03/25 10:11:44;;;;;;;38.20;21.70;;;;;;;;;;5096295;28;20107;-86
2021/03/25 10:14:29;;;;;;;36.40;21.45;;;;;;;;;;5094773;27;20457;-85
2021/03/25 10:16:55;;;;;;;36.90;20.48;;;;;;;;;;5121370;27;20065;-86
2021/03/25 10:19:41;;;;;;;33.38;19.80;;;;;;;;;;5096116;28;20036;-85
2021/03/25 10:22:14;;;;;;;37.30;20.63;;;;;;;;;;5114109;28;20114;-85
2021/03/25 10:24:41;;;;;;;35.08;19.23;;;;;;;;;;5079113;28;20043;-85
2021/03/25 10:27:31;;;;;;;35.40;19.10;;;;;;;;;;5096136;28;20043;-86
2021/03/25 10:29:57;;;;;;;36.33;19.65;;;;;;;;;;5079013;28;20491;-86
2021/03/25 10:32:27;;;;;;;33.08;19.55;;;;;;;;;;5079051;28;20035;-86
2021/03/25 10:34:55;;;;;;;33.00;20.58;;;;;;;;;;5095514;28;20048;-86
2021/03/25 10:37:24;;;;;;;37.00;20.73;;;;;;;;;;5078902;28;20061;-86
2021/03/25 10:39:50;;;;;;;32.30;19.95;;;;;;;;;;5095877;28;20039;-85
2021/03/25 10:42:36;;;;;;;31.48;18.77;;;;;;;;;;5095752;28;20110;-86
2021/03/25 10:45:16;;;;;;;34.20;19.77;;;;;;;;;;5079085;28;20057;-85
2021/03/25 10:47:47;;;;;;;34.60;19.23;;;;;;;;;;5095805;28;20440;-86
2021/03/25 10:50:16;;;;;;;33.45;19.52;;;;;;;;;;5113829;28;20039;-85
2021/03/25 10:52:42;;;;;;;39.05;20.50;;;;;;;;;;5095408;28;20120;-84
2021/03/25 10:55:15;;;;;;;38.05;21.15;;;;;;;;;;5078569;28;20063;-85
2021/03/25 10:57:41;;;;;;;35.28;20.30;;;;;;;;;;5078432;28;20039;-85
2021/03/25 11:00:09;;;;;;;36.55;21.73;;;;;;;;;;5078382;28;20578;-86
2021/03/25 11:02:39;;;;;;;37.60;22.23;;;;;;;;;;5078298;28;20040;-85
2021/03/25 11:05:05;;;;;;;38.78;22.75;;;;;;;;;;5078342;28;20042;-86
2021/03/25 11:07:38;;;;;;;40.85;23.63;;;;;;;;;;5078007;28;20118;-86
2021/03/25 11:10:04;;;;;;;;;;;;;;;;;;5095625;28;20152;-86
2021/03/25 11:12:33;;;;;;;38.47;22.98;;;;;;;;;;5094985;28;20370;-86
2021/03/25 11:15:08;;;;;;;43.13;23.67;;;;;;;;;;5095023;28;20112;-86
2021/03/25 11:17:41;;;;;;;40.25;23.13;;;;;;;;;;5113097;28;20443;-86
2021/03/25 11:20:08;;;;;;;41.42;23.75;;;;;;;;;;5078618;28;20043;-85
2021/03/25 11:22:34;;;;;;;38.65;22.02;;;;;;;;;;5094807;28;20490;-86
2021/03/25 11:25:01;;;;;;;38.83;20.52;;;;;;;;;;5077808;28;20032;-85
2021/03/25 11:27:28;;;;;;;38.33;21.77;;;;;;;;;;5095023;28;20039;-86
2021/03/25 11:30:07;;;;;;;36.90;21.52;;;;;;;;;;5079199;28;20040;-87
2021/03/25 11:32:37;;;;;;;40.67;21.02;;;;;;;;;;5094699;28;20040;-88
2021/03/25 11:35:22;;;;;;;34.47;19.50;;;;;;;;;;5077831;28;20051;-86
2021/03/25 11:37:48;;;;;;;34.47;18.33;;;;;;;;;;5077919;28;20447;-87
2021/03/25 11:40:15;;;;;;;32.38;18.55;;;;;;;;;;5094919;28;20039;-90
2021/03/25 11:42:45;;;;;;;33.67;18.02;;;;;;;;;;5077740;28;20038;-87
2021/03/25 11:45:30;;;;;;;32.33;17.38;;;;;;;;;;5077687;28;20043;-87
2021/03/25 11:47:56;;;;;;;32.85;17.27;;;;;;;;;;5094329;28;20039;-87
2021/03/25 11:50:25;;;;;;;33.50;18.70;;;;;;;;;;5094711;28;20027;-87
2021/03/25 11:52:52;;;;;;;33.25;18.88;;;;;;;;;;5094549;28;20122;-87
2021/03/25 11:55:20;;;;;;;35.95;19.33;;;;;;;;;;5094756;28;20143;-87
2021/03/25 11:57:46;;;;;;;31.65;18.80;;;;;;;;;;5077802;28;20039;-86
2021/03/25 12:00:19;;;;;;;31.33;17.52;;;;;;;;;;5060487;28;20044;-86
2021/03/25 12:02:45;;;;;;;32.75;18.30;;;;;;;;;;5094303;28;20478;-86
2021/03/25 12:05:22;;;;;;;35.05;19.02;;;;;;;;;;5094400;28;20578;-85
2021/03/25 12:07:48;;;;;;;38.92;19.20;;;;;;;;;;5077548;28;20418;-86
2021/03/25 12:10:14;;;;;;;37.70;18.15;;;;;;;;;;5094158;28;20039;-86
2021/03/25 12:12:43;;;;;;;32.25;16.88;;;;;;;;;;5094003;28;20088;-86
2021/03/25 12:15:09;;;;;;;36.72;18.05;;;;;;;;;;5094309;28;20032;-87
2021/03/25 12:17:36;;;;;;;28.90;15.60;;;;;;;;;;5077437;28;20044;-86
2021/03/25 12:20:02;;;;;;;24.20;14.38;;;;;;;;;;5094257;28;20032;-86
2021/03/25 12:22:29;;;;;;;29.45;15.07;;;;;;;;;;5077312;28;20088;-86
2021/03/25 12:24:55;;;;;;;28.17;16.55;;;;;;;;;;5076893;28;20051;-86
2021/03/25 12:27:23;;;;;;;35.03;16.63;;;;;;;;;;5093885;28;20051;-86
2021/03/25 12:29:52;;;;;;;34.25;18.55;;;;;;;;;;5094526;28;20044;-84
2021/03/25 12:32:21;;;;;;;35.88;18.13;;;;;;;;;;5077361;28;20069;-85
2021/03/25 12:34:47;;;;;;;39.92;19.20;;;;;;;;;;5094069;28;20043;-85
2021/03/25 12:37:13;;;;;;;36.35;20.10;;;;;;;;;;5095353;28;20048;-86
2021/03/25 12:39:39;;;;;;;36.45;19.35;;;;;;;;;;5081012;28;20110;-85
2021/03/25 12:42:06;;;;;;;35.20;20.02;;;;;;;;;;5081067;28;20036;-86
2021/03/25 12:44:33;;;;;;;34.53;18.92;;;;;;;;;;5097917;28;20096;-85
2021/03/25 12:47:00;;;;;;;38.17;21.17;;;;;;;;;;5098074;28;20047;-86
2021/03/25 12:49:26;;;;;;;38.05;20.75;;;;;;;;;;5098315;28;20494;-86
2021/03/25 12:51:53;;;;;;;40.75;21.42;;;;;;;;;;5098414;28;20198;-87
2021/03/25 12:54:19;;;;;;;36.75;20.63;;;;;;;;;;5091265;27;20514;-87
2021/03/25 12:56:45;;;;;;;38.00;21.98;;;;;;;;;;5094803;28;20031;-87
2021/03/25 12:59:15;;;;;;;44.28;21.80;;;;;;;;;;5109323;27;20106;-90
2021/03/25 13:01:41;;;;;;;38.42;20.95;;;;;;;;;;5102018;27;20035;-90
2021/03/25 13:04:07;;;;;;;39.00;20.85;;;;;;;;;;5100211;28;20423;-91
2021/03/25 13:06:35;;;;;;;32.58;20.05;;;;;;;;;;5099084;28;20046;-90
2021/03/25 13:09:01;;;;;;;36.15;20.95;;;;;;;;;;5098811;28;20043;-90
2021/03/25 13:11:28;;;;;;;37.60;20.52;;;;;;;;;;5098408;28;20093;-90
2021/03/25 13:13:54;;;;;;;38.10;20.63;;;;;;;;;;5098175;28;20378;-90
2021/03/25 13:16:20;;;;;;;39.53;20.65;;;;;;;;;;5081741;28;20110;-90
2021/03/25 13:18:46;;;;;;;37.00;22.42;;;;;;;;;;5081414;28;20046;-91
2021/03/25 13:21:13;;;;;;;36.50;21.65;;;;;;;;;;5081086;28;20043;-90
2021/03/25 13:23:39;;;;;;;36.90;21.33;;;;;;;;;;5081004;28;20108;-89
2021/03/25 13:26:09;;;;;;;38.40;21.65;;;;;;;;;;5080947;28;20040;-89
2021/03/25 13:28:35;;;;;;;38.60;21.92;;;;;;;;;;5089911;27;20282;-89
2021/03/25 13:31:02;;;;;;;40.20;22.08;;;;;;;;;;5101456;27;20039;-89
2021/03/25 13:33:28;;;;;;;36.45;20.40;;;;;;;;;;5092406;28;20440;-86
2021/03/25 13:35:55;;;;;;;38.70;22.30;;;;;;;;;;5080918;28;20513;-90
2021/03/25 13:38:21;;;;;;;38.92;21.48;;;;;;;;;;5081321;28;20043;-89
2021/03/25 13:40:47;;;;;;;42.13;22.25;;;;;;;;;;5080510;28;20119;-86
2021/03/25 13:43:14;;;;;;;41.63;20.55;;;;;;;;;;5079861;28;20044;-86
2021/03/25 13:45:40;;;;;;;38.50;20.23;;;;;;;;;;5079833;28;20039;-86
2021/03/25 13:48:07;;;;;;;40.17;21.45;;;;;;;;;;5079220;28;20077;-85
2021/03/25 13:50:33;;;;;;;36.05;20.85;;;;;;;;;;5096425;28;20092;-86
2021/03/25 13:53:00;;;;;;;43.03;23.33;;;;;;;;;;5096996;28;20479;-86
2021/03/25 13:55:26;;;;;;;32.83;16.77;;;;;;;;;;5079822;28;20039;-85
2021/03/25 13:57:52;;;;;;;26.55;14.95;;;;;;;;;;5114701;28;20119;-86
2021/03/25 14:00:18;;;;;;;30.60;15.40;;;;;;;;;;5096549;28;20058;-85
2021/03/25 14:02:44;;;;;;;29.48;15.52;;;;;;;;;;5114802;28;20475;-86
2021/03/25 14:05:11;;;;;;;28.25;14.55;;;;;;;;;;5096330;28;20552;-87
2021/03/25 14:07:36;;;;;;;26.83;15.88;;;;;;;;;;5096652;28;20048;-86
2021/03/25 14:10:03;;;;;;;25.45;16.02;;;;;;;;;;5114644;28;20046;-86
2021/03/25 14:12:30;;;;;;;29.27;17.38;;;;;;;;;;5079641;28;20436;-86
2021/03/25 14:14:56;;;;;;;34.10;17.33;;;;;;;;;;5114574;28;20158;-85
2021/03/25 14:17:22;;;;;;;29.00;17.48;;;;;;;;;;5096766;28;20226;-85
2021/03/25 14:19:48;;;;;;;32.42;17.67;;;;;;;;;;5079329;28;20134;-86
2021/03/25 14:22:14;;;;;;;34.88;18.02;;;;;;;;;;5096421;28;20409;-85
2021/03/25 14:24:40;;;;;;;34.85;18.42;;;;;;;;;;5114269;28;20165;-86
2021/03/25 14:27:06;;;;;;;40.03;21.15;;;;;;;;;;5062612;28;20487;-86
2021/03/25 14:29:32;;;;;;;42.83;24.33;;;;;;;;;;5079457;28;20040;-88
2021/03/25 14:32:00;;;;;;;39.20;23.08;;;;;;;;;;5097013;28;20379;-88
2021/03/25 14:34:26;;;;;;;45.40;23.85;;;;;;;;;;5095758;28;20052;-85
2021/03/25 14:36:52;;;;;;;47.97;26.00;;;;;;;;;;5096433;28;20035;-87